createdAt,value
2018-12-14T00:01:31.919Z,-0.70
2018-12-14T00:04:00.244Z,-0.70
2018-12-14T00:06:28.601Z,-0.70
2018-12-14T00:08:56.960Z,-0.70
2018-12-14T00:11:25.330Z,-0.70
2018-12-14T00:13:53.655Z,-0.70
2018-12-14T00:16:23.216Z,-0.70
2018-12-14T00:18:52.033Z,-0.70
2018-12-14T00:21:20.393Z,-0.70
2018-12-14T00:23:48.961Z,-0.70
2018-12-14T00:26:18.529Z,-0.60
2018-12-14T00:28:46.854Z,-0.60
2018-12-14T00:31:15.518Z,-0.60
2018-12-14T00:33:44.450Z,-0.60
2018-12-14T00:36:14.441Z,-0.60
2018-12-14T00:38:42.672Z,-0.60
2018-12-14T00:41:10.920Z,-0.50
2018-12-14T00:43:39.257Z,-0.50
2018-12-14T00:46:09.529Z,-0.50
2018-12-14T00:48:38.345Z,-0.50
2018-12-14T00:51:07.316Z,-0.50
2018-12-14T00:53:35.532Z,-0.60
2018-12-14T00:56:05.205Z,-0.60
2018-12-14T00:58:33.408Z,-0.60
2018-12-14T01:01:01.637Z,-0.50
2018-12-14T01:03:32.009Z,-0.60
2018-12-14T01:06:00.245Z,-0.50
2018-12-14T01:08:28.493Z,-0.50
2018-12-14T01:10:58.149Z,-0.50
2018-12-14T01:13:26.537Z,-0.50
2018-12-14T01:15:54.748Z,-0.60
2018-12-14T01:18:23.123Z,-0.60
2018-12-14T01:20:51.333Z,-0.50
2018-12-14T01:25:54.147Z,-0.60
2018-12-14T01:28:22.598Z,-0.50
2018-12-14T01:30:52.237Z,-0.60
2018-12-14T01:33:20.483Z,-0.50
2018-12-14T01:35:49.272Z,-0.50
2018-12-14T01:38:18.332Z,-0.50
2018-12-14T01:40:46.546Z,-0.50
2018-12-14T01:43:15.097Z,-0.60
2018-12-14T01:45:43.306Z,-0.50
2018-12-14T01:48:11.576Z,-0.60
2018-12-14T01:50:39.785Z,-0.50
2018-12-14T01:53:08.046Z,-0.50
2018-12-14T01:55:37.675Z,-0.50
2018-12-14T01:58:06.035Z,-0.50
2018-12-14T02:00:35.558Z,-0.60
2018-12-14T02:03:04.535Z,-0.60
2018-12-14T02:05:32.748Z,-0.70
2018-12-14T02:08:01.168Z,-0.70
2018-12-14T02:10:30.989Z,-0.70
2018-12-14T02:12:59.560Z,-0.70
2018-12-14T02:15:29.884Z,-0.70
2018-12-14T02:17:58.364Z,-0.60
2018-12-14T02:20:26.856Z,-0.60
2018-12-14T02:22:55.122Z,-0.60
2018-12-14T02:25:24.937Z,-0.60
2018-12-14T02:27:55.197Z,-0.60
2018-12-14T02:30:46.720Z,-0.60
2018-12-14T02:33:32.184Z,-0.70
2018-12-14T02:36:02.314Z,-0.80
2018-12-14T02:38:31.443Z,-0.70
2018-12-14T02:41:00.682Z,-0.80
2018-12-14T02:43:29.394Z,-0.70
2018-12-14T02:45:58.934Z,-0.70
2018-12-14T02:48:27.267Z,-0.60
2018-12-14T02:50:56.935Z,-0.60
2018-12-14T02:53:25.143Z,-0.60
2018-12-14T02:55:53.388Z,-0.60
2018-12-14T02:58:21.717Z,-0.60
2018-12-14T03:00:51.370Z,-0.80
2018-12-14T03:03:19.824Z,-0.70
2018-12-14T03:05:49.582Z,-0.70
2018-12-14T03:08:17.838Z,-0.70
2018-12-14T03:10:47.425Z,-0.70
2018-12-14T03:13:15.703Z,-0.70
2018-12-14T03:15:43.929Z,-0.60
2018-12-14T03:18:12.745Z,-0.60
2018-12-14T03:20:41.056Z,-0.70
2018-12-14T03:23:09.654Z,-0.80
2018-12-14T03:25:39.539Z,-0.80
2018-12-14T03:28:07.949Z,-0.70
2018-12-14T03:30:37.520Z,-0.70
2018-12-14T03:33:05.851Z,-0.70
2018-12-14T03:35:34.274Z,-0.70
2018-12-14T03:38:03.197Z,-0.70
2018-12-14T03:40:33.099Z,-0.60
2018-12-14T03:43:01.309Z,-0.70
2018-12-14T03:45:30.881Z,-0.80
2018-12-14T03:47:59.181Z,-0.80
2018-12-14T03:50:28.862Z,-0.80
2018-12-14T03:52:57.071Z,-0.80
2018-12-14T03:55:26.507Z,-0.80
2018-12-14T03:57:55.241Z,-0.80
2018-12-14T04:00:24.801Z,-0.80
2018-12-14T04:02:53.367Z,-0.70
2018-12-14T04:05:23.401Z,-0.80
2018-12-14T04:07:51.645Z,-0.80
2018-12-14T04:10:21.078Z,-0.80
2018-12-14T04:12:50.635Z,-0.70
2018-12-14T04:15:18.835Z,-0.80
2018-12-14T04:17:48.398Z,-0.80
2018-12-14T04:20:16.651Z,-0.80
2018-12-14T04:22:46.216Z,-0.80
2018-12-14T04:25:15.004Z,-0.80
2018-12-14T04:27:44.567Z,-0.90
2018-12-14T04:30:13.008Z,-0.80
2018-12-14T04:32:42.574Z,-0.80
2018-12-14T04:35:10.900Z,-0.80
2018-12-14T04:37:40.457Z,-0.80
2018-12-14T04:40:09.287Z,-0.70
2018-12-14T04:42:39.738Z,-0.80
2018-12-14T04:45:08.023Z,-0.80
2018-12-14T04:47:38.672Z,-0.90
2018-12-14T04:50:07.287Z,-0.90
2018-12-14T04:52:36.992Z,-0.90
2018-12-14T04:55:06.007Z,-1.00
2018-12-14T04:57:36.609Z,-1.00
2018-12-14T05:00:07.314Z,-0.90
2018-12-14T05:02:35.960Z,-0.90
2018-12-14T05:05:04.274Z,-0.90
2018-12-14T05:07:33.801Z,-1.00
2018-12-14T05:10:02.029Z,-1.00
2018-12-14T05:12:32.157Z,-0.90
2018-12-14T05:15:00.387Z,-0.90
2018-12-14T05:17:28.609Z,-1.00
2018-12-14T05:19:56.859Z,-1.00
2018-12-14T05:22:25.081Z,-0.90
2018-12-14T05:24:53.774Z,-0.90
2018-12-14T05:27:22.099Z,-0.90
2018-12-14T05:29:50.756Z,-0.90
2018-12-14T05:32:20.202Z,-0.80
2018-12-14T05:34:48.867Z,-0.80
2018-12-14T05:37:17.169Z,-0.80
2018-12-14T05:39:45.421Z,-0.80
2018-12-14T05:42:15.064Z,-0.90
2018-12-14T05:44:43.298Z,-0.90
2018-12-14T05:47:11.504Z,-1.00
2018-12-14T05:49:39.750Z,-1.00
2018-12-14T05:52:07.967Z,-1.00
2018-12-14T05:54:36.214Z,-1.00
2018-12-14T05:57:04.426Z,-1.00
2018-12-14T05:59:32.664Z,-1.00
2018-12-14T06:02:02.100Z,-1.00
2018-12-14T06:04:30.337Z,-1.00
2018-12-14T06:06:58.543Z,-1.00
2018-12-14T06:09:26.786Z,-0.90
2018-12-14T06:11:56.354Z,-0.90
2018-12-14T06:14:24.698Z,-0.90
2018-12-14T06:16:54.336Z,-0.90
2018-12-14T06:19:22.537Z,-0.90
2018-12-14T06:21:50.773Z,-0.90
2018-12-14T06:24:18.974Z,-1.00
2018-12-14T06:26:47.222Z,-1.00
2018-12-14T06:29:15.417Z,-0.90
2018-12-14T06:31:43.668Z,-1.00
2018-12-14T06:34:11.863Z,-0.90
2018-12-14T06:36:41.614Z,-1.00
2018-12-14T06:39:09.821Z,-1.00
2018-12-14T06:41:39.885Z,-1.00
2018-12-14T06:44:10.105Z,-1.00
2018-12-14T06:46:39.762Z,-1.00
2018-12-14T06:49:08.194Z,-1.00
2018-12-14T06:51:37.752Z,-1.00
2018-12-14T06:54:05.953Z,-1.00
2018-12-14T06:56:34.202Z,-1.00
2018-12-14T06:59:02.404Z,-1.00
2018-12-14T07:01:30.638Z,-1.00
2018-12-14T07:03:58.843Z,-1.00
2018-12-14T07:06:28.435Z,-1.00
2018-12-14T07:08:56.738Z,-1.10
2018-12-14T07:11:26.401Z,-1.00
2018-12-14T07:13:54.661Z,-1.10
2018-12-14T07:16:24.228Z,-1.20
2018-12-14T07:18:52.558Z,-1.20
2018-12-14T07:21:22.114Z,-1.10
2018-12-14T07:23:50.313Z,-1.20
2018-12-14T07:26:18.551Z,-1.20
2018-12-14T07:28:46.820Z,-1.20
2018-12-14T07:31:15.220Z,-1.30
2018-12-14T07:33:43.507Z,-1.30
2018-12-14T07:36:13.050Z,-1.20
2018-12-14T07:38:41.297Z,-1.10
2018-12-14T07:41:10.926Z,-1.20
2018-12-14T07:43:39.169Z,-1.10
2018-12-14T07:46:08.694Z,-1.20
2018-12-14T07:48:37.048Z,-1.20
2018-12-14T07:51:05.264Z,-1.20
2018-12-14T07:53:33.494Z,-1.10
2018-12-14T07:56:03.049Z,-1.10
2018-12-14T07:58:31.405Z,-1.10
2018-12-14T08:00:59.621Z,-1.20
2018-12-14T08:03:27.870Z,-1.10
2018-12-14T08:05:56.155Z,-1.10
2018-12-14T08:08:24.583Z,-1.10
2018-12-14T08:10:52.803Z,-1.10
2018-12-14T08:13:21.054Z,-1.30
2018-12-14T08:15:49.265Z,-1.20
2018-12-14T08:18:17.810Z,-1.10
2018-12-14T08:20:46.286Z,-1.20
2018-12-14T08:23:15.180Z,-1.30
2018-12-14T08:25:43.397Z,-1.40
2018-12-14T08:28:12.060Z,-1.30
2018-12-14T08:30:40.249Z,-1.40
2018-12-14T08:33:08.488Z,-1.30
2018-12-14T08:35:38.050Z,-1.20
2018-12-14T08:38:06.286Z,-1.20
2018-12-14T08:40:34.486Z,-1.10
2018-12-14T08:43:02.733Z,-1.10
2018-12-14T08:45:32.274Z,-1.00
2018-12-14T08:48:00.710Z,-1.00
2018-12-14T08:50:28.956Z,-1.00
2018-12-14T08:52:57.158Z,-1.00
2018-12-14T08:55:25.394Z,-1.10
2018-12-14T08:57:53.593Z,-1.20
2018-12-14T09:00:21.848Z,-1.30
2018-12-14T09:02:51.378Z,-1.20
2018-12-14T09:05:19.739Z,-1.10
2018-12-14T09:07:49.362Z,-1.10
2018-12-14T09:10:17.722Z,-1.10
2018-12-14T09:12:47.244Z,-1.10
2018-12-14T09:15:15.474Z,-1.10
2018-12-14T09:17:45.297Z,-1.10
2018-12-14T09:20:13.637Z,-1.10
2018-12-14T09:22:43.262Z,-1.10
2018-12-14T09:25:11.485Z,-1.00
2018-12-14T09:27:41.088Z,-1.10
2018-12-14T09:30:09.505Z,-1.00
2018-12-14T09:32:39.339Z,-1.00
2018-12-14T09:35:07.671Z,-0.90
2018-12-14T09:37:37.206Z,-0.90
2018-12-14T09:40:05.786Z,-0.80
2018-12-14T09:42:35.417Z,-0.90
2018-12-14T09:45:03.649Z,-0.80
2018-12-14T09:47:33.558Z,-0.80
2018-12-14T09:50:01.804Z,-0.80
2018-12-14T09:52:32.045Z,-0.90
2018-12-14T09:55:00.302Z,-0.80
2018-12-14T09:57:28.559Z,-0.70
2018-12-14T09:59:56.774Z,-0.50
2018-12-14T10:02:26.345Z,-0.60
2018-12-14T10:04:54.574Z,-0.70
2018-12-14T10:07:25.123Z,-0.50
2018-12-14T10:09:53.333Z,-0.40
2018-12-14T10:12:22.997Z,-0.30
2018-12-14T10:14:51.318Z,-0.20
2018-12-14T10:17:19.599Z,-0.30
2018-12-14T10:19:47.830Z,-0.60
2018-12-14T10:22:17.484Z,-0.60
2018-12-14T10:24:45.717Z,-0.50
2018-12-14T10:27:13.958Z,-0.60
2018-12-14T10:29:42.281Z,-0.70
2018-12-14T10:32:10.517Z,-0.60
2018-12-14T10:34:39.550Z,-0.70
2018-12-14T10:37:08.031Z,-0.50
2018-12-14T10:39:36.364Z,-0.40
2018-12-14T10:42:06.134Z,-0.60
2018-12-14T10:44:34.366Z,-0.50
2018-12-14T10:47:02.604Z,-0.30
2018-12-14T10:49:30.938Z,-0.20
2018-12-14T10:52:00.398Z,-0.20
2018-12-14T10:54:28.798Z,-0.40
2018-12-14T10:56:57.058Z,-0.30
2018-12-14T10:59:25.719Z,-0.20
2018-12-14T11:01:56.553Z,-0.20
2018-12-14T11:04:25.704Z,-0.20
2018-12-14T11:06:54.088Z,0.00
2018-12-14T11:09:22.402Z,-0.20
2018-12-14T11:11:50.606Z,-0.20
2018-12-14T11:14:18.850Z,0.10
2018-12-14T11:16:47.178Z,0.10
2018-12-14T11:19:15.531Z,0.30
2018-12-14T11:21:43.744Z,0.30
2018-12-14T11:24:11.976Z,0.00
2018-12-14T11:26:42.200Z,-0.30
2018-12-14T11:29:10.430Z,-0.20
2018-12-14T11:31:40.058Z,-0.20
2018-12-14T11:34:08.323Z,-0.10
2018-12-14T11:36:36.651Z,-0.10
2018-12-14T11:39:05.390Z,-0.20
2018-12-14T11:41:35.623Z,-0.10
2018-12-14T11:44:03.995Z,0.00
2018-12-14T11:46:33.611Z,0.00
2018-12-14T11:49:02.254Z,0.00
2018-12-14T11:51:30.482Z,0.10
2018-12-14T11:53:58.719Z,0.00
2018-12-14T11:56:28.447Z,-0.10
2018-12-14T11:58:56.689Z,-0.10
2018-12-14T12:01:24.889Z,-0.20
2018-12-14T12:03:53.138Z,-0.30
2018-12-14T12:06:21.354Z,-0.30
2018-12-14T12:08:49.602Z,-0.20
2018-12-14T12:11:17.937Z,-0.10
2018-12-14T12:13:46.180Z,-0.20
2018-12-14T12:16:15.832Z,-0.30
2018-12-14T12:18:44.198Z,-0.20
2018-12-14T12:21:12.523Z,-0.40
2018-12-14T12:23:40.772Z,-0.40
2018-12-14T12:26:10.406Z,-0.30
2018-12-14T12:28:38.639Z,-0.30
2018-12-14T12:31:06.834Z,-0.40
2018-12-14T12:33:35.185Z,-0.40
2018-12-14T12:36:04.005Z,-0.30
2018-12-14T12:38:37.966Z,-0.20
2018-12-14T12:41:02.602Z,-0.10
2018-12-14T12:43:30.867Z,-0.10
2018-12-14T12:46:00.535Z,-0.20
2018-12-14T12:48:28.760Z,-0.20
2018-12-14T12:51:02.849Z,-0.20
2018-12-14T12:53:27.374Z,-0.20
2018-12-14T12:55:55.676Z,-0.10
2018-12-14T12:58:23.996Z,-0.10
2018-12-14T13:00:53.572Z,-0.10
2018-12-14T13:03:21.771Z,-0.10
2018-12-14T13:05:51.426Z,-0.10
2018-12-14T13:08:20.582Z,-0.20
2018-12-14T13:10:50.141Z,-0.20
2018-12-14T13:13:18.347Z,-0.10
2018-12-14T13:15:47.803Z,-0.10
2018-12-14T13:18:16.008Z,-0.20
2018-12-14T13:20:45.573Z,-0.20
2018-12-14T13:23:13.785Z,-0.20
2018-12-14T13:25:43.340Z,-0.20
2018-12-14T13:28:11.841Z,-0.20
2018-12-14T13:30:40.470Z,-0.20
2018-12-14T13:33:08.778Z,-0.20
2018-12-14T13:35:37.126Z,-0.20
2018-12-14T13:38:05.358Z,-0.10
2018-12-14T13:40:35.037Z,0.00
2018-12-14T13:43:03.255Z,0.00
2018-12-14T13:45:33.032Z,0.00
2018-12-14T13:48:01.225Z,0.00
2018-12-14T13:50:31.089Z,0.00
2018-12-14T13:52:59.331Z,-0.10
2018-12-14T13:55:27.557Z,-0.10
2018-12-14T13:57:55.762Z,0.00
2018-12-14T14:00:23.997Z,-0.10
2018-12-14T14:02:52.207Z,0.00
2018-12-14T14:05:21.838Z,-0.10
2018-12-14T14:07:51.390Z,-0.10
2018-12-14T14:10:19.591Z,0.00
2018-12-14T14:12:49.041Z,0.00
2018-12-14T14:15:20.901Z,0.00
2018-12-14T14:17:48.822Z,0.00
2018-12-14T14:20:17.146Z,0.10
2018-12-14T14:22:46.708Z,0.10
2018-12-14T14:25:17.629Z,0.10
2018-12-14T14:27:46.494Z,0.10
2018-12-14T14:30:14.692Z,0.10
2018-12-14T14:32:44.241Z,0.10
2018-12-14T14:35:12.451Z,0.10
2018-12-14T14:37:42.103Z,0.00
2018-12-14T14:40:10.435Z,-0.10
2018-12-14T14:42:40.090Z,-0.10
2018-12-14T14:45:08.297Z,-0.10
2018-12-14T14:47:38.456Z,-0.10
2018-12-14T14:50:08.043Z,-0.10
2018-12-14T14:52:37.606Z,0.00
2018-12-14T14:55:05.806Z,-0.10
2018-12-14T14:57:35.863Z,-0.10
2018-12-14T15:00:05.258Z,-0.10
2018-12-14T15:02:35.615Z,-0.10
2018-12-14T15:05:05.121Z,-0.10
2018-12-14T15:07:34.974Z,-0.10
2018-12-14T15:10:04.192Z,-0.10
2018-12-14T15:12:34.017Z,0.00
2018-12-14T15:15:06.585Z,0.00
2018-12-14T15:17:34.546Z,-0.10
2018-12-14T15:20:02.818Z,-0.10
2018-12-14T15:22:33.049Z,0.00
2018-12-14T15:25:01.313Z,-0.10
2018-12-14T15:27:31.874Z,-0.20
2018-12-14T15:30:00.145Z,-0.10
2018-12-14T15:32:31.894Z,-0.10
2018-12-14T15:35:00.261Z,-0.20
2018-12-14T15:37:28.645Z,-0.20
2018-12-14T15:39:56.888Z,-0.10
2018-12-14T15:42:25.195Z,-0.10
2018-12-14T15:44:53.443Z,-0.10
2018-12-14T15:47:21.649Z,-0.10
2018-12-14T15:49:50.002Z,0.00
2018-12-14T15:52:19.726Z,0.00
2018-12-14T15:54:47.982Z,-0.10
2018-12-14T15:57:16.301Z,-0.10
2018-12-14T15:59:44.756Z,-0.10
2018-12-14T16:02:14.291Z,-0.20
2018-12-14T16:04:42.658Z,-0.10
2018-12-14T16:07:10.894Z,-0.10
2018-12-14T16:09:39.548Z,-0.10
2018-12-14T16:12:09.770Z,-0.10
2018-12-14T16:14:38.123Z,0.00
2018-12-14T16:17:06.375Z,-0.10
2018-12-14T16:19:34.749Z,-0.20
2018-12-14T16:22:03.081Z,-0.20
2018-12-14T16:24:31.328Z,-0.20
2018-12-14T16:27:00.768Z,-0.20
2018-12-14T16:29:29.431Z,-0.10
2018-12-14T16:31:57.770Z,-0.10
2018-12-14T16:34:26.013Z,-0.10
2018-12-14T16:36:54.230Z,-0.10
2018-12-14T16:39:22.755Z,-0.10
2018-12-14T16:41:52.373Z,0.00
2018-12-14T16:44:21.786Z,-0.10
2018-12-14T16:46:51.415Z,-0.10
2018-12-14T16:49:19.619Z,-0.10
2018-12-14T16:51:49.191Z,-0.10
2018-12-14T16:54:17.394Z,0.00
2018-12-14T16:56:45.637Z,0.00
2018-12-14T16:59:13.965Z,-0.10
2018-12-14T17:01:42.722Z,-0.10
2018-12-14T17:04:10.930Z,-0.10
2018-12-14T17:06:41.185Z,-0.10
2018-12-14T17:09:09.507Z,-0.10
2018-12-14T17:11:39.774Z,-0.10
2018-12-14T17:14:08.098Z,-0.10
2018-12-14T17:16:38.361Z,-0.20
2018-12-14T17:19:06.690Z,-0.20
2018-12-14T17:21:36.483Z,-0.20
2018-12-14T17:24:04.808Z,-0.20
2018-12-14T17:26:34.665Z,-0.20
2018-12-14T17:29:03.000Z,-0.20
2018-12-14T17:31:31.676Z,-0.20
2018-12-14T17:34:00.598Z,-0.20
2018-12-14T17:36:29.070Z,-0.20
2018-12-14T17:38:57.398Z,-0.30
2018-12-14T17:41:27.171Z,-0.20
2018-12-14T17:43:55.498Z,-0.20
2018-12-14T17:46:23.854Z,-0.30
2018-12-14T17:48:52.194Z,-0.20
2018-12-14T17:51:20.659Z,-0.30
2018-12-14T17:53:48.981Z,-0.20
2018-12-14T17:56:18.718Z,-0.20
2018-12-14T17:58:47.175Z,-0.10
2018-12-14T18:01:16.831Z,-0.20
2018-12-14T18:03:45.191Z,-0.20
2018-12-14T18:06:15.413Z,-0.20
2018-12-14T18:08:43.649Z,-0.20
2018-12-14T18:11:13.282Z,-0.30
2018-12-14T18:13:41.534Z,-0.30
2018-12-14T18:16:11.364Z,-0.30
2018-12-14T18:18:39.741Z,-0.30
2018-12-14T18:21:08.080Z,-0.30
2018-12-14T18:23:36.569Z,-0.30
2018-12-14T18:26:04.877Z,-0.30
2018-12-14T18:28:33.134Z,-0.40
2018-12-14T18:31:01.362Z,-0.30
2018-12-14T18:33:31.432Z,-0.30
2018-12-14T18:36:01.069Z,-0.30
2018-12-14T18:38:30.922Z,-0.30
2018-12-14T18:41:00.589Z,-0.50
2018-12-14T18:43:29.451Z,-0.40
2018-12-14T18:45:57.685Z,-0.40
2018-12-14T18:48:26.038Z,-0.40
2018-12-14T18:50:54.758Z,-0.30
2018-12-14T18:53:23.123Z,-0.20
2018-12-14T18:55:51.581Z,-0.20
2018-12-14T18:58:19.925Z,-0.30
2018-12-14T19:00:48.249Z,-0.30
2018-12-14T19:03:16.605Z,-0.30
2018-12-14T19:05:46.894Z,-0.40
2018-12-14T19:08:15.354Z,-0.40
2018-12-14T19:10:45.606Z,-0.30
2018-12-14T19:13:13.957Z,-0.40
2018-12-14T19:15:43.793Z,-0.40
2018-12-14T19:18:12.038Z,-0.40
2018-12-14T19:20:40.608Z,-0.40
2018-12-14T19:23:08.834Z,-0.30
2018-12-14T19:25:37.195Z,-0.40
2018-12-14T19:28:05.538Z,-0.30
2018-12-14T19:30:35.206Z,-0.30
2018-12-14T19:33:03.414Z,-0.30
2018-12-14T19:35:32.976Z,-0.40
2018-12-14T19:38:01.299Z,-0.30
2018-12-14T19:40:30.697Z,-0.30
2018-12-14T19:42:59.075Z,-0.40
2018-12-14T19:45:28.838Z,-0.30
2018-12-14T19:47:57.103Z,-0.30
2018-12-14T19:50:26.866Z,-0.30
2018-12-14T19:52:55.083Z,-0.30
2018-12-14T19:55:23.334Z,-0.30
2018-12-14T19:57:51.530Z,-0.30
2018-12-14T20:00:20.982Z,-0.20
2018-12-14T20:02:51.197Z,-0.30
2018-12-14T20:05:19.567Z,-0.30
2018-12-14T20:07:49.303Z,-0.20
2018-12-14T20:10:18.245Z,-0.20
2018-12-14T20:12:47.791Z,-0.30
2018-12-14T20:15:16.071Z,-0.20
2018-12-14T20:17:45.602Z,-0.30
2018-12-14T20:20:14.516Z,-0.30
2018-12-14T20:22:44.042Z,-0.30
2018-12-14T20:25:12.718Z,-0.30
2018-12-14T20:27:42.372Z,-0.30
2018-12-14T20:30:10.585Z,-0.30
2018-12-14T20:32:40.543Z,-0.30
2018-12-14T20:35:09.086Z,-0.30
2018-12-14T20:37:38.614Z,-0.30
2018-12-14T20:40:06.860Z,-0.20
2018-12-14T20:42:36.418Z,-0.30
2018-12-14T20:45:06.026Z,-0.30
2018-12-14T20:47:35.590Z,-0.30
2018-12-14T20:50:04.474Z,-0.30
2018-12-14T20:52:34.020Z,-0.40
2018-12-14T20:55:02.566Z,-0.40
2018-12-14T20:57:32.653Z,-0.40
2018-12-14T21:00:00.857Z,-0.30
2018-12-14T21:02:31.113Z,-0.30
2018-12-14T21:04:59.377Z,-0.30
2018-12-14T21:07:27.609Z,-0.30
2018-12-14T21:09:55.944Z,-0.40
2018-12-14T21:12:25.709Z,-0.40
2018-12-14T21:14:55.938Z,-0.30
2018-12-14T21:17:25.818Z,-0.30
2018-12-14T21:19:54.061Z,-0.30
2018-12-14T21:22:23.620Z,-0.30
2018-12-14T21:24:51.827Z,-0.40
2018-12-14T21:27:20.093Z,-0.40
2018-12-14T21:29:48.308Z,-0.40
2018-12-14T21:32:18.173Z,-0.40
2018-12-14T21:34:46.519Z,-0.40
2018-12-14T21:37:15.125Z,-0.40
2018-12-14T21:39:43.456Z,-0.40
2018-12-14T21:42:13.113Z,-0.30
2018-12-14T21:44:42.551Z,-0.30
2018-12-14T21:47:12.113Z,-0.30
2018-12-14T21:49:40.669Z,-0.40
2018-12-14T21:52:10.378Z,-0.40
2018-12-14T21:54:38.770Z,-0.30
2018-12-14T21:57:08.341Z,-0.30
2018-12-14T21:59:36.666Z,-0.30
2018-12-14T22:02:04.909Z,-0.30
2018-12-14T22:04:34.093Z,-0.40
2018-12-14T22:07:02.450Z,-0.40
2018-12-14T22:09:30.984Z,-0.40
2018-12-14T22:12:00.850Z,-0.40
2018-12-14T22:14:29.122Z,-0.40
2018-12-14T22:16:57.349Z,-0.30
2018-12-14T22:19:25.618Z,-0.30
2018-12-14T22:21:55.262Z,-0.30
2018-12-14T22:24:23.515Z,-0.30
2018-12-14T22:26:51.841Z,-0.30
2018-12-14T22:29:20.067Z,-0.30
2018-12-14T22:31:49.596Z,-0.30
2018-12-14T22:34:17.846Z,-0.30
2018-12-14T22:36:46.051Z,-0.30
2018-12-14T22:39:14.791Z,-0.30
2018-12-14T22:41:44.242Z,-0.40
2018-12-14T22:44:12.473Z,-0.40
2018-12-14T22:46:45.635Z,-0.30
2018-12-14T22:49:12.428Z,-0.40
2018-12-14T22:51:40.657Z,-0.40
2018-12-14T22:54:08.910Z,-0.30
2018-12-14T22:56:38.471Z,-0.30
2018-12-14T22:59:06.734Z,-0.40
2018-12-14T23:01:36.369Z,-0.40
2018-12-14T23:04:04.788Z,-0.40
2018-12-14T23:06:33.182Z,-0.50
2018-12-14T23:09:01.448Z,-0.40
2018-12-14T23:11:31.665Z,-0.50
2018-12-14T23:14:00.048Z,-0.40
2018-12-14T23:16:30.502Z,-0.40
2018-12-14T23:18:58.738Z,-0.40
2018-12-14T23:21:26.971Z,-0.50
2018-12-14T23:23:55.191Z,-0.40
2018-12-14T23:26:24.829Z,-0.40
2018-12-14T23:28:53.181Z,-0.30
2018-12-14T23:31:22.740Z,-0.40
2018-12-14T23:33:51.073Z,-0.30
2018-12-14T23:36:20.831Z,-0.30
2018-12-14T23:38:49.053Z,-0.40
2018-12-14T23:41:17.289Z,-0.40
2018-12-14T23:43:45.510Z,-0.40
2018-12-14T23:46:13.877Z,-0.40
2018-12-14T23:48:42.066Z,-0.30
2018-12-14T23:51:11.726Z,-0.40
2018-12-14T23:53:40.149Z,-0.40
2018-12-14T23:56:10.409Z,-0.40
2018-12-14T23:58:38.741Z,-0.40
